createdAt,value
2022-12-16T00:01:27.464Z,15.10
2022-12-16T00:03:55.439Z,15.00
2022-12-16T00:06:23.971Z,14.70
2022-12-16T00:08:51.862Z,15.00
2022-12-16T00:11:20.042Z,15.00
2022-12-16T00:13:47.136Z,15.30
2022-12-16T00:16:14.616Z,15.00
2022-12-16T00:18:41.616Z,15.00
2022-12-16T00:21:08.446Z,14.80
2022-12-16T00:23:35.897Z,15.00
2022-12-16T00:26:03.137Z,15.00
2022-12-16T00:28:29.683Z,15.40
2022-12-16T00:30:57.532Z,14.50
2022-12-16T00:33:25.342Z,15.00
2022-12-16T00:35:52.452Z,15.00
2022-12-16T00:38:20.338Z,14.80
2022-12-16T00:40:46.901Z,14.90
2022-12-16T00:43:13.483Z,15.00
2022-12-16T00:45:40.206Z,14.90
2022-12-16T00:48:07.808Z,15.70
2022-12-16T00:50:35.251Z,15.80
2022-12-16T00:53:01.912Z,15.30
2022-12-16T00:55:28.493Z,14.90
2022-12-16T00:57:55.059Z,14.90
2022-12-16T01:00:22.494Z,14.20
2022-12-16T01:02:49.651Z,14.90
2022-12-16T01:05:19.223Z,14.90
2022-12-16T01:07:46.265Z,14.90
2022-12-16T01:10:12.886Z,14.90
2022-12-16T01:12:40.080Z,15.00
2022-12-16T01:15:08.101Z,14.90
2022-12-16T01:17:35.274Z,14.90
2022-12-16T01:20:02.321Z,15.10
2022-12-16T01:22:30.209Z,14.90
2022-12-16T01:24:57.060Z,14.90
2022-12-16T01:27:23.674Z,14.90
2022-12-16T01:29:50.434Z,15.40
2022-12-16T01:32:17.263Z,14.90
2022-12-16T01:34:47.338Z,14.90
2022-12-16T01:37:17.579Z,14.90
2022-12-16T01:39:44.224Z,15.60
2022-12-16T01:42:15.027Z,14.90
2022-12-16T01:44:42.842Z,14.90
2022-12-16T01:47:13.418Z,14.90
2022-12-16T01:49:44.196Z,15.10
2022-12-16T01:52:14.663Z,14.90
2022-12-16T01:54:53.257Z,14.90
2022-12-16T01:57:24.721Z,14.90
2022-12-16T01:59:52.466Z,15.60
2022-12-16T02:02:19.371Z,14.90
2022-12-16T02:05:24.732Z,14.80
2022-12-16T02:07:54.404Z,15.70
2022-12-16T02:10:23.711Z,14.90
2022-12-16T02:12:59.296Z,14.90
2022-12-16T02:15:48.876Z,14.90
2022-12-16T02:18:34.045Z,14.90
2022-12-16T02:21:09.886Z,14.90
2022-12-16T02:23:36.783Z,14.90
2022-12-16T02:26:06.459Z,14.50
2022-12-16T02:28:48.765Z,14.90
2022-12-16T02:31:38.637Z,14.90
2022-12-16T02:34:13.713Z,14.90
2022-12-16T02:36:44.204Z,14.80
2022-12-16T02:39:14.073Z,14.80
2022-12-16T02:41:43.716Z,14.80
2022-12-16T02:44:11.163Z,14.80
2022-12-16T02:46:42.176Z,14.80
2022-12-16T02:49:28.691Z,14.80
2022-12-16T02:51:55.658Z,14.70
2022-12-16T02:54:23.044Z,14.80
2022-12-16T02:56:49.603Z,14.80
2022-12-16T02:59:35.852Z,14.80
2022-12-16T03:02:15.797Z,14.80
2022-12-16T03:04:45.635Z,14.80
2022-12-16T03:07:14.143Z,14.80
2022-12-16T03:09:41.336Z,15.90
2022-12-16T03:12:10.790Z,15.40
2022-12-16T03:14:38.912Z,15.60
2022-12-16T03:17:07.146Z,14.80
2022-12-16T03:19:34.615Z,14.80
2022-12-16T03:22:04.976Z,15.70
2022-12-16T03:24:32.481Z,15.00
2022-12-16T03:27:13.966Z,14.80
2022-12-16T03:29:43.940Z,14.80
2022-12-16T03:32:13.778Z,14.80
2022-12-16T03:34:43.386Z,14.80
2022-12-16T03:37:12.010Z,14.80
2022-12-16T03:39:41.761Z,14.80
2022-12-16T03:42:09.179Z,15.00
2022-12-16T03:44:36.050Z,14.90
2022-12-16T03:47:02.684Z,14.90
2022-12-16T03:49:29.270Z,14.90
2022-12-16T03:51:56.415Z,15.00
2022-12-16T03:54:23.705Z,15.00
2022-12-16T03:56:50.309Z,15.70
2022-12-16T03:59:17.060Z,14.30
2022-12-16T04:01:43.900Z,14.90
2022-12-16T04:04:10.684Z,14.90
2022-12-16T04:06:37.332Z,15.60
2022-12-16T04:09:04.163Z,14.60
2022-12-16T04:11:49.486Z,14.90
2022-12-16T04:14:34.979Z,14.90
2022-12-16T04:17:20.380Z,14.90
2022-12-16T04:20:06.262Z,15.50
2022-12-16T04:22:54.022Z,14.90
2022-12-16T04:25:31.651Z,15.30
2022-12-16T04:27:58.758Z,14.80
2022-12-16T04:30:25.556Z,14.80
2022-12-16T04:33:12.368Z,14.90
2022-12-16T04:35:57.609Z,14.80
2022-12-16T04:38:43.269Z,14.90
2022-12-16T04:41:28.675Z,14.80
2022-12-16T04:44:14.677Z,14.90
2022-12-16T04:47:00.041Z,14.80
2022-12-16T04:49:45.607Z,14.80
2022-12-16T04:52:30.974Z,14.80
2022-12-16T04:55:16.081Z,14.80
2022-12-16T04:58:03.653Z,14.80
2022-12-16T05:00:48.817Z,15.00
2022-12-16T05:03:34.595Z,14.60
2022-12-16T05:06:20.009Z,14.80
2022-12-16T05:09:05.295Z,14.80
2022-12-16T05:11:50.449Z,14.80
2022-12-16T05:14:35.743Z,14.90
2022-12-16T05:17:21.107Z,15.50
2022-12-16T05:20:06.241Z,14.80
2022-12-16T05:22:51.135Z,15.50
2022-12-16T05:25:36.348Z,15.20
2022-12-16T05:28:21.265Z,14.80
2022-12-16T05:30:48.353Z,15.10
2022-12-16T05:33:34.324Z,14.80
2022-12-16T05:36:20.062Z,14.80
2022-12-16T05:39:05.043Z,14.80
2022-12-16T05:41:50.130Z,14.80
2022-12-16T05:44:35.034Z,14.80
2022-12-16T05:47:20.281Z,14.70
2022-12-16T05:50:06.342Z,14.80
2022-12-16T05:52:51.276Z,14.70
2022-12-16T05:55:36.624Z,14.80
2022-12-16T05:58:21.614Z,14.80
2022-12-16T06:01:06.651Z,14.90
2022-12-16T06:03:51.801Z,14.70
2022-12-16T06:06:37.246Z,15.00
2022-12-16T06:09:22.506Z,15.00
2022-12-16T06:12:08.456Z,15.00
2022-12-16T06:14:53.600Z,14.90
2022-12-16T06:17:57.816Z,15.00
2022-12-16T06:20:44.645Z,15.00
2022-12-16T06:23:41.182Z,15.00
2022-12-16T06:26:26.380Z,15.00
2022-12-16T06:29:11.631Z,15.00
2022-12-16T06:31:57.191Z,15.00
2022-12-16T06:34:42.584Z,14.90
2022-12-16T06:37:28.067Z,15.00
2022-12-16T06:40:13.548Z,15.00
2022-12-16T06:42:59.386Z,15.10
2022-12-16T06:45:44.803Z,15.10
2022-12-16T06:48:30.109Z,15.10
2022-12-16T06:51:15.229Z,15.10
2022-12-16T06:54:00.710Z,15.10
2022-12-16T06:56:46.073Z,15.10
2022-12-16T06:59:31.318Z,15.10
2022-12-16T07:02:16.757Z,15.10
2022-12-16T07:05:02.040Z,15.20
2022-12-16T07:07:47.399Z,15.10
2022-12-16T07:10:32.653Z,15.10
2022-12-16T07:13:21.119Z,15.30
2022-12-16T07:16:06.641Z,15.10
2022-12-16T07:18:51.961Z,15.10
2022-12-16T07:21:37.461Z,15.10
2022-12-16T07:24:22.929Z,15.00
2022-12-16T07:27:08.522Z,15.10
2022-12-16T07:29:53.804Z,15.10
2022-12-16T07:32:38.792Z,15.10
2022-12-16T07:35:24.466Z,15.20
2022-12-16T07:38:09.575Z,15.10
2022-12-16T07:40:54.815Z,15.20
2022-12-16T07:43:40.357Z,15.10
2022-12-16T07:46:25.992Z,15.20
2022-12-16T07:49:11.176Z,15.20
2022-12-16T07:51:56.301Z,15.10
2022-12-16T07:54:41.351Z,15.20
2022-12-16T07:57:26.557Z,15.20
2022-12-16T08:00:11.644Z,15.20
2022-12-16T08:02:56.821Z,15.20
2022-12-16T08:05:42.086Z,15.20
2022-12-16T08:08:27.776Z,15.20
2022-12-16T08:11:12.941Z,15.20
2022-12-16T08:13:59.546Z,15.20
2022-12-16T08:16:44.716Z,15.20
2022-12-16T08:19:30.964Z,15.20
2022-12-16T08:22:16.599Z,15.20
2022-12-16T08:25:01.704Z,15.20
2022-12-16T08:27:46.874Z,15.20
2022-12-16T08:30:32.072Z,15.20
2022-12-16T08:33:19.667Z,15.30
2022-12-16T08:36:08.359Z,15.30
2022-12-16T08:38:53.835Z,15.20
2022-12-16T08:41:40.955Z,15.30
2022-12-16T08:44:25.901Z,15.30
2022-12-16T08:47:11.237Z,15.30
2022-12-16T08:49:59.745Z,15.30
2022-12-16T08:52:48.281Z,15.20
2022-12-16T08:55:33.455Z,15.20
2022-12-16T08:58:18.540Z,15.20
2022-12-16T09:01:07.503Z,15.20
2022-12-16T09:03:54.208Z,15.30
2022-12-16T09:06:56.427Z,15.20
2022-12-16T09:09:41.813Z,15.20
2022-12-16T09:12:27.050Z,15.20
2022-12-16T09:15:12.246Z,15.20
2022-12-16T09:17:57.916Z,15.20
2022-12-16T09:20:43.332Z,15.30
2022-12-16T09:23:28.874Z,15.30
2022-12-16T09:26:17.554Z,15.30
2022-12-16T09:29:02.901Z,15.30
2022-12-16T09:31:48.008Z,15.30
2022-12-16T09:34:33.712Z,15.10
2022-12-16T09:37:18.696Z,15.30
2022-12-16T09:40:03.774Z,15.30
2022-12-16T09:42:51.381Z,15.40
2022-12-16T09:46:04.388Z,15.40
2022-12-16T09:49:01.631Z,15.40
2022-12-16T09:51:47.802Z,15.40
2022-12-16T09:54:34.889Z,15.40
2022-12-16T09:57:21.421Z,15.40
2022-12-16T10:00:12.165Z,15.40
2022-12-16T10:03:03.292Z,15.30
2022-12-16T10:06:06.126Z,15.40
2022-12-16T10:09:03.226Z,15.40
2022-12-16T10:11:54.791Z,15.40
2022-12-16T10:14:44.471Z,15.30
2022-12-16T10:17:36.625Z,15.40
2022-12-16T10:20:24.798Z,15.30
2022-12-16T10:23:15.542Z,15.40
2022-12-16T10:26:04.666Z,15.40
2022-12-16T10:28:49.798Z,15.40
2022-12-16T10:31:35.934Z,15.40
2022-12-16T10:34:21.784Z,15.40
2022-12-16T10:37:12.352Z,15.30
2022-12-16T10:40:06.476Z,15.40
2022-12-16T10:42:55.684Z,15.20
2022-12-16T10:45:48.752Z,15.40
2022-12-16T10:48:50.040Z,15.40
2022-12-16T10:51:41.127Z,15.40
2022-12-16T10:54:41.785Z,15.40
2022-12-16T10:57:46.114Z,15.40
2022-12-16T11:00:35.241Z,15.40
2022-12-16T11:03:40.794Z,15.40
2022-12-16T11:06:26.625Z,15.40
2022-12-16T11:09:11.806Z,15.40
2022-12-16T11:12:10.575Z,15.40
2022-12-16T11:15:27.201Z,15.40
2022-12-16T11:18:19.015Z,15.40
2022-12-16T11:21:07.126Z,15.40
2022-12-16T11:23:54.979Z,15.40
2022-12-16T11:26:40.061Z,15.50
2022-12-16T11:29:28.356Z,15.40
2022-12-16T11:32:16.004Z,15.40
2022-12-16T11:35:02.583Z,15.40
2022-12-16T11:37:48.155Z,15.40
2022-12-16T11:40:35.240Z,15.30
2022-12-16T11:43:24.176Z,15.40
2022-12-16T11:46:10.765Z,15.40
2022-12-16T11:49:11.265Z,15.40
2022-12-16T11:52:14.300Z,15.40
2022-12-16T11:55:12.820Z,15.40
2022-12-16T11:58:02.917Z,15.40
2022-12-16T12:01:07.817Z,15.40
2022-12-16T12:03:59.899Z,15.40
2022-12-16T12:06:53.000Z,15.40
2022-12-16T12:09:39.605Z,15.40
2022-12-16T12:12:24.683Z,15.40
2022-12-16T12:15:15.787Z,15.40
2022-12-16T12:18:17.025Z,15.40
2022-12-16T12:21:07.645Z,15.40
2022-12-16T12:23:58.852Z,15.40
2022-12-16T12:26:49.498Z,15.40
2022-12-16T12:29:37.737Z,15.40
2022-12-16T12:32:25.861Z,15.40
2022-12-16T12:35:29.655Z,15.40
2022-12-16T12:38:22.396Z,15.30
2022-12-16T12:41:23.198Z,15.40
2022-12-16T12:44:36.920Z,15.30
2022-12-16T12:47:34.109Z,15.30
2022-12-16T12:50:25.373Z,15.40
2022-12-16T12:53:29.470Z,15.40
2022-12-16T12:56:14.492Z,15.40
2022-12-16T12:59:01.301Z,15.40
2022-12-16T13:01:48.662Z,15.40
2022-12-16T13:04:41.194Z,15.40
2022-12-16T13:07:26.738Z,15.40
2022-12-16T13:10:30.834Z,15.40
2022-12-16T13:13:35.074Z,15.40
2022-12-16T13:16:21.581Z,15.40
2022-12-16T13:19:09.793Z,15.40
2022-12-16T13:21:57.058Z,15.30
2022-12-16T13:24:45.357Z,15.40
2022-12-16T13:27:32.408Z,15.40
2022-12-16T13:30:37.868Z,15.40
2022-12-16T13:33:41.909Z,15.40
2022-12-16T13:36:28.579Z,15.40
2022-12-16T13:39:14.568Z,15.50
2022-12-16T13:41:59.582Z,15.50
2022-12-16T13:45:00.040Z,15.40
2022-12-16T13:47:51.261Z,15.40
2022-12-16T13:50:55.479Z,15.40
2022-12-16T13:53:44.381Z,15.40
2022-12-16T13:56:32.656Z,15.40
2022-12-16T13:59:24.536Z,15.40
2022-12-16T14:02:13.971Z,15.40
2022-12-16T14:05:02.235Z,15.50
2022-12-16T14:07:49.880Z,15.50
2022-12-16T14:10:42.580Z,15.60
2022-12-16T14:14:00.415Z,15.60
2022-12-16T14:16:57.180Z,15.60
2022-12-16T14:19:47.620Z,15.60
2022-12-16T14:22:35.914Z,15.60
2022-12-16T14:25:39.973Z,15.60
2022-12-16T14:28:44.031Z,15.60
2022-12-16T14:31:52.419Z,15.60
2022-12-16T14:34:38.527Z,15.60
2022-12-16T14:37:31.359Z,15.60
2022-12-16T14:40:16.767Z,15.60
2022-12-16T14:43:02.267Z,15.60
2022-12-16T14:45:49.578Z,15.60
2022-12-16T14:48:49.178Z,15.60
2022-12-16T14:51:43.606Z,15.60
2022-12-16T14:54:46.178Z,15.60
2022-12-16T14:57:38.734Z,15.60
2022-12-16T15:00:23.943Z,15.60
2022-12-16T15:03:10.504Z,15.60
2022-12-16T15:05:56.788Z,15.60
2022-12-16T15:08:42.542Z,15.60
2022-12-16T15:11:29.855Z,15.60
2022-12-16T15:14:16.916Z,15.60
2022-12-16T15:17:02.748Z,15.60
2022-12-16T15:20:10.700Z,15.60
2022-12-16T15:22:56.999Z,15.60
2022-12-16T15:25:44.331Z,15.90
2022-12-16T15:29:01.891Z,15.90
2022-12-16T15:31:51.638Z,15.60
2022-12-16T15:35:04.171Z,15.60
2022-12-16T15:37:56.063Z,15.60
2022-12-16T15:40:47.705Z,15.60
2022-12-16T15:43:57.304Z,15.60
2022-12-16T15:46:43.914Z,15.50
2022-12-16T15:49:40.681Z,14.90
2022-12-16T15:52:44.859Z,15.50
2022-12-16T15:55:45.120Z,15.40
2022-12-16T15:58:37.377Z,15.40
2022-12-16T16:01:22.952Z,15.40
2022-12-16T16:04:09.575Z,15.50
2022-12-16T16:06:54.970Z,15.50
2022-12-16T16:09:56.792Z,15.50
2022-12-16T16:12:42.392Z,15.60
2022-12-16T16:15:28.933Z,15.50
2022-12-16T16:18:18.506Z,15.50
2022-12-16T16:21:04.174Z,15.60
2022-12-16T16:23:49.418Z,15.50
2022-12-16T16:26:36.022Z,15.60
2022-12-16T16:29:21.296Z,15.60
2022-12-16T16:32:06.474Z,15.60
2022-12-16T16:34:51.528Z,15.60
2022-12-16T16:37:39.021Z,15.60
2022-12-16T16:40:42.349Z,15.60
2022-12-16T16:43:27.514Z,15.50
2022-12-16T16:46:13.198Z,15.60
2022-12-16T16:48:58.767Z,15.50
2022-12-16T16:51:43.908Z,15.50
2022-12-16T16:54:29.065Z,15.50
2022-12-16T16:57:14.226Z,16.00
2022-12-16T16:59:59.345Z,15.50
2022-12-16T17:02:44.500Z,16.50
2022-12-16T17:05:30.259Z,15.50
2022-12-16T17:08:16.037Z,16.00
2022-12-16T17:11:01.772Z,15.50
2022-12-16T17:13:47.404Z,15.50
2022-12-16T17:16:33.173Z,15.50
2022-12-16T17:19:24.447Z,15.70
2022-12-16T17:22:09.519Z,15.50
2022-12-16T17:24:54.916Z,15.60
2022-12-16T17:27:42.710Z,15.50
2022-12-16T17:30:44.917Z,15.60
2022-12-16T17:33:33.441Z,15.50
2022-12-16T17:36:19.354Z,15.50
2022-12-16T17:39:04.527Z,15.40
2022-12-16T17:41:50.308Z,15.40
2022-12-16T17:44:35.903Z,15.40
2022-12-16T17:47:21.031Z,15.50
2022-12-16T17:50:06.087Z,15.50
2022-12-16T17:52:51.263Z,15.60
2022-12-16T17:55:36.970Z,15.90
2022-12-16T17:58:22.172Z,15.60
2022-12-16T18:01:07.761Z,15.50
2022-12-16T18:03:53.272Z,15.50
2022-12-16T18:06:38.576Z,15.50
2022-12-16T18:09:23.903Z,15.50
2022-12-16T18:12:09.508Z,15.50
2022-12-16T18:14:54.896Z,15.50
2022-12-16T18:17:40.092Z,15.50
2022-12-16T18:20:25.755Z,16.40
2022-12-16T18:23:12.026Z,15.60
2022-12-16T18:25:57.419Z,15.50
2022-12-16T18:28:42.360Z,15.50
2022-12-16T18:31:27.521Z,15.50
2022-12-16T18:34:12.946Z,15.60
2022-12-16T18:36:58.109Z,15.60
2022-12-16T18:39:43.328Z,15.60
2022-12-16T18:42:28.674Z,15.60
2022-12-16T18:45:13.906Z,15.60
2022-12-16T18:48:12.613Z,15.70
2022-12-16T18:50:57.727Z,15.70
2022-12-16T18:53:42.897Z,15.70
2022-12-16T18:56:28.495Z,15.60
2022-12-16T18:59:13.802Z,15.60
2022-12-16T19:01:59.709Z,15.60
2022-12-16T19:04:45.155Z,15.60
2022-12-16T19:07:33.562Z,15.50
2022-12-16T19:10:19.348Z,15.50
2022-12-16T19:13:04.365Z,15.40
2022-12-16T19:15:49.523Z,15.40
2022-12-16T19:18:34.793Z,15.40
2022-12-16T19:21:20.205Z,16.30
2022-12-16T19:24:07.030Z,15.40
2022-12-16T19:27:15.504Z,15.40
2022-12-16T19:30:00.748Z,15.30
2022-12-16T19:32:46.195Z,15.50
2022-12-16T19:35:31.300Z,15.30
2022-12-16T19:38:16.330Z,15.50
2022-12-16T19:41:10.723Z,16.10
2022-12-16T19:44:01.741Z,15.20
2022-12-16T19:46:50.640Z,15.30
2022-12-16T19:49:47.503Z,15.30
2022-12-16T19:52:32.814Z,15.20
2022-12-16T19:55:25.671Z,15.20
2022-12-16T19:58:10.645Z,15.20
2022-12-16T20:00:55.856Z,15.20
2022-12-16T20:03:42.119Z,15.20
2022-12-16T20:06:27.995Z,15.20
2022-12-16T20:09:14.230Z,15.20
2022-12-16T20:12:00.476Z,15.20
2022-12-16T20:14:45.737Z,15.20
2022-12-16T20:17:31.008Z,15.70
2022-12-16T20:20:16.356Z,15.40
2022-12-16T20:23:01.613Z,15.20
2022-12-16T20:25:46.759Z,15.10
2022-12-16T20:28:32.181Z,15.20
2022-12-16T20:31:21.177Z,15.20
2022-12-16T20:34:11.813Z,15.20
2022-12-16T20:36:56.815Z,15.20
2022-12-16T20:39:44.623Z,15.20
2022-12-16T20:42:32.219Z,15.30
2022-12-16T20:45:17.454Z,15.70
2022-12-16T20:48:02.518Z,15.10
2022-12-16T20:50:47.689Z,15.10
2022-12-16T20:53:32.854Z,15.10
2022-12-16T20:56:21.436Z,15.10
2022-12-16T20:59:07.595Z,15.10
2022-12-16T21:02:21.548Z,15.70
2022-12-16T21:04:58.002Z,16.00
2022-12-16T21:07:43.067Z,15.10
2022-12-16T21:10:28.515Z,15.20
2022-12-16T21:13:13.751Z,15.10
2022-12-16T21:15:58.762Z,15.10
2022-12-16T21:18:44.020Z,15.10
2022-12-16T21:21:29.225Z,15.10
2022-12-16T21:24:14.404Z,15.10
2022-12-16T21:26:59.539Z,15.10
2022-12-16T21:29:44.689Z,15.10
2022-12-16T21:32:29.802Z,15.10
2022-12-16T21:35:14.841Z,15.10
2022-12-16T21:38:00.111Z,15.10
2022-12-16T21:40:45.320Z,15.10
2022-12-16T21:43:30.488Z,15.40
2022-12-16T21:46:32.404Z,15.10
2022-12-16T21:49:17.773Z,15.10
2022-12-16T21:52:03.063Z,15.10
2022-12-16T21:54:48.175Z,15.10
2022-12-16T21:57:33.368Z,15.10
2022-12-16T22:00:18.447Z,15.30
2022-12-16T22:03:17.141Z,15.20
2022-12-16T22:06:02.342Z,15.00
2022-12-16T22:08:47.471Z,15.00
2022-12-16T22:11:33.175Z,15.10
2022-12-16T22:14:18.519Z,15.10
2022-12-16T22:17:05.258Z,15.10
2022-12-16T22:19:50.275Z,15.10
2022-12-16T22:22:35.754Z,15.00
2022-12-16T22:25:20.944Z,15.00
2022-12-16T22:28:06.139Z,15.00
2022-12-16T22:30:51.558Z,15.00
2022-12-16T22:33:37.194Z,15.80
2022-12-16T22:36:23.446Z,15.10
2022-12-16T22:39:08.623Z,15.00
2022-12-16T22:41:54.801Z,15.00
2022-12-16T22:44:41.668Z,15.20
2022-12-16T22:47:27.008Z,15.10
2022-12-16T22:50:12.176Z,15.10
2022-12-16T22:52:57.252Z,15.20
2022-12-16T22:55:42.638Z,15.20
2022-12-16T22:58:28.718Z,15.20
2022-12-16T23:01:13.743Z,15.20
2022-12-16T23:03:58.880Z,15.40
2022-12-16T23:06:44.095Z,15.40
2022-12-16T23:09:29.363Z,15.10
2022-12-16T23:12:14.594Z,15.10
2022-12-16T23:14:59.469Z,15.10
2022-12-16T23:17:46.704Z,15.10
2022-12-16T23:20:31.843Z,15.10
2022-12-16T23:23:16.848Z,15.10
2022-12-16T23:26:02.092Z,15.80
2022-12-16T23:28:47.385Z,15.20
2022-12-16T23:31:32.920Z,15.90
2022-12-16T23:34:18.107Z,15.00
2022-12-16T23:37:03.140Z,15.00
2022-12-16T23:39:48.421Z,15.00
2022-12-16T23:42:33.484Z,15.00
2022-12-16T23:45:35.246Z,15.00
2022-12-16T23:48:24.376Z,15.00
2022-12-16T23:51:10.002Z,15.00
2022-12-16T23:53:56.523Z,15.00
2022-12-16T23:56:41.698Z,15.00
2022-12-16T23:59:26.760Z,15.00
